Burns Pinion Ridge Reserve, California Weather observations

Data are for 10 minute period ending at time listed.
 Day   Time   Solar   Ave.   Ave.  Ave.  Vector  Max.   Baro.   Total    
  of    of     Rad.   Air    Rel.  Wind   Wind   Wind  Press.  Precip.   
Year   Day            Temp.  Hum.  Speed  Dir.   Gust                    
2014   (PST)  Kw/m2    F      %     mph   deg.    mph    mb.     in.     
-------------------------------------------------------------------------
 263    0:10   0.00   68.4    50    3.5   221     6.4   874.2    0.00 
 263    0:20   0.00   67.9    51    2.4   227     5.6   874.2    0.00 
 263    0:30   0.00   67.7    52    2.4   239     4.5   874.1    0.00 
 263    0:40   0.00   67.4    52    3.2   230     6.1   874.2    0.00 
 263    0:50   0.00   67.7    52    3.8   233     7.1   874.2    0.00 
 263    1:00   0.00   67.5    52    4.0   225     6.4   874.2    0.00 
 263    1:10   0.00   67.6    52    3.6   227     6.1   874.2    0.00 
 263    1:20   0.00   67.1    53    2.8   227     4.5   874.2    0.00 
 263    1:30   0.00   66.1    54    3.1   229     4.2   874.2    0.00 
 263    1:40   0.00   66.1    54    3.0   236     4.5   874.1    0.00 
 263    1:50   0.00   65.4    55    2.0   248     3.4   874.1    0.00 
 263    2:00   0.00   62.5    60    1.1   252     1.6   874.0    0.00 
 263    2:10   0.00   60.9    64    1.3   258     1.8   873.9    0.00 
 263    2:20   0.00   60.4    66    1.4   246     1.9   873.9    0.00 
 263    2:30   0.00   60.2    66    1.6   261     2.1   873.8    0.00 
 263    2:40   0.00   60.3    65    1.3   246     2.3   873.7    0.00 
 263    2:50   0.00   60.3    65    2.8   244     3.5   873.7    0.00 
 263    3:00   0.00   59.9    65    2.9   240     3.4   873.7    0.00 
 263    3:10   0.00   60.8    64    3.2   242     3.7   873.6    0.00 
 263    3:20   0.00   61.9    61    2.3   242     3.6   873.6    0.00 
 263    3:30   0.00   60.9    63    2.4   245     3.5   873.6    0.00 
 263    3:40   0.00   60.4    64    2.4   254     3.5   873.6    0.00 
 263    3:50   0.00   60.5    64    3.2   250     4.1   873.6    0.00 
 263    4:00   0.00   62.4    60    2.3   228     5.0   873.7    0.00 
 263    4:10   0.00   61.9    61    2.1   237     3.9   873.8    0.00 
 263    4:20   0.00   60.9    63    0.4   222     1.5   873.9    0.00 
 263    4:30   0.00   59.5    67    1.1   216     2.3   873.9    0.00 
 263    4:40   0.00   59.1    67    2.1   226     3.0   874.0    0.00 
 263    4:50   0.00   58.9    68    1.4   216     2.0   874.1    0.00 
 263    5:00   0.00   58.8    68    0.5   209     1.8   874.2    0.00 
 263    5:10   0.00   58.6    69    0.0     0     0.0   874.3    0.00 
 263    5:20   0.00   58.5    69    0.0     0     0.0   874.4    0.00 
 263    5:30   0.00   58.9    69    1.8   123     3.4   874.5    0.00 
 263    5:40   0.00   61.0    64    0.6   133     3.0   874.6    0.00 
 263    5:50   0.01   60.7    65    0.4   139     2.9   874.7    0.00 
 263    6:00   0.01   63.1    61    2.7    80     5.3   874.8    0.00 
 263    6:10   0.01   65.8    55    2.8    92     4.8   874.8    0.00 
 263    6:20   0.03   67.2    52    2.9    82     4.8   874.8    0.00 
 263    6:30   0.03   67.8    50    2.7    90     5.3   874.9    0.00 
 263    6:40   0.16   70.0    46    1.4   104     3.9   875.0    0.00 
 263    6:50   0.20   73.7    41    2.2    82     5.2   875.1    0.00 
 263    7:00   0.19   73.9    40    1.3    70     4.1   875.2    0.00 
 263    7:10   0.24   74.6    40    0.9    62     3.3   875.5    0.00 
 263    7:20   0.26   76.0    38    0.7    25     2.5   875.6    0.00 
 263    7:30   0.16   74.7    39    0.7    60     2.6   875.7    0.00 
 263    7:40   0.18   74.3    40    0.1    78     1.2   875.8    0.00 
 263    7:50   0.35   75.4    38    1.1   104     4.7   876.0    0.00 
 263    8:00   0.42   75.8    38    2.6   130     5.0   876.0    0.00 
 263    8:10   0.46   77.3    36    3.2   140     6.7   876.1    0.00 
 263    8:20   0.51   77.7    36    2.3   106     4.5   876.2    0.00 
 263    8:30   0.55   78.0    35    3.0   124     6.2   876.3    0.00 
 263    8:40   0.57   77.9    36    2.7   143     6.8   876.4    0.00 
 263    8:50   0.60   78.5    35    4.1   152     8.7   876.3    0.00 
 263    9:00   0.62   79.1    35    3.2   203     5.8   876.3    0.00 
 263    9:10   0.67   80.9    33    1.9   132     6.3   874.5    0.00 
 263    9:20   0.68   80.2    33    2.5   189     5.6   876.4    0.00 
 263    9:30   0.74   80.8    33    4.0   136     9.1   876.4    0.00 
 263    9:40   0.79   80.6    33    3.8   139     9.4   876.4    0.00 
 263    9:50   0.76   81.0    32    4.5   167    10.0   876.3    0.00 
 263   10:00   0.81   81.2    32    5.3   205    11.9   876.3    0.00 
 263   10:10   0.81   80.0    33    5.6   213    10.4   876.2    0.00 
 263   10:20   0.86   82.3    31    3.1   175     7.5   876.2    0.00 
 263   10:30   0.74   82.2    32    5.2   170    10.8   876.1    0.00 
 263   10:40   0.62   81.6    31    6.5   152    11.5   876.0    0.00 
 263   10:50   0.55   80.6    32    6.6   139    12.5   876.0    0.00 
 263   11:00   0.54   81.4    30    6.9   150    13.3   875.8    0.00 
 263   11:10   0.75   81.7    32    6.1   174    12.6   875.8    0.00 
 263   11:20   0.52   82.5    29    8.3   155    18.0   875.8    0.00 
 263   11:30   0.59   80.0    34    7.1   211    15.0   875.8    0.00 
 263   11:40   0.47   80.4    33    6.9   199    15.2   875.7    0.00 
 263   11:50   0.51   79.2    32    8.4   208    16.1   875.7    0.00 
 263   12:00   0.56   79.5    32    7.0   202    16.1   875.7    0.00 
 263   12:10   0.53   80.6    30    6.8   191    15.1   875.5    0.00 
 263   12:20   0.84   80.9    31    5.5   192    12.4   875.4    0.00 
 263   12:30   0.79   82.5    30    5.7   183    15.1   875.2    0.00 
 263   12:40   0.87   83.0    28    6.8   161    17.1   875.1    0.00 
 263   12:50   0.89   84.3    25    6.6   163    14.9   875.0    0.00 
 263   13:00   0.72   83.4    22   10.0   155    19.9   874.9    0.00 
 263   13:10   0.78   83.5    26    5.5   159    13.3   874.8    0.00 
 263   13:20   0.66   83.3    26    5.7   167    11.6   874.6    0.00 
 263   13:30   0.63   83.2    26    8.8   150    18.6   874.6    0.00 
 263   13:40   0.77   83.1    27    8.5   152    15.1   874.5    0.00 
 263   13:50   0.74   83.0    28   12.5   149    20.6   874.4    0.00 
 263   14:00   0.70   82.8    27    7.9   151    16.5   874.3    0.00 
 263   14:10   0.71   82.9    27    8.9   156    18.0   874.3    0.00 
 263   14:20   0.67   83.4    27    9.2   152    16.2   874.3    0.00 
 263   14:30   0.64   83.4    28    7.4   162    15.1   874.2    0.00 
 263   14:40   0.61   83.8    26    8.2   161    17.8   874.1    0.00 
 263   14:50   0.58   83.3    28    6.4   162    15.2   874.0    0.00 
 263   15:00   0.55   83.1    28    8.7   159    19.5   873.9    0.00 
 263   15:10   0.52   82.9    28    7.6   155    15.7   873.9    0.00 
 263   15:20   0.49   83.0    28    7.8   158    17.2   873.8    0.00 
 263   15:30   0.45   82.6    27    8.1   175    16.1   873.7    0.00 
 263   15:40   0.42   82.8    26    7.2   170    13.2   873.7    0.00 
 263   15:50   0.35   82.7    26    7.6   153    17.2   873.7    0.00 
 263   16:00   0.24   80.9    29    7.4   153    16.2   873.8    0.00 
 263   16:10   0.30   81.4    30    7.1   168    16.3   873.8    0.00 
 263   16:20   0.26   80.4    32    7.8   204    14.3   873.8    0.00 
 263   16:30   0.23   81.1    32    4.9   214    10.7   873.8    0.00 
 263   16:40   0.20   80.1    32    6.1   218    11.9   873.9    0.00 
 263   16:50   0.16   79.9    32    5.4   211    13.0   873.9    0.00 
 263   17:00   0.13   79.0    34    4.9   198    11.0   873.9    0.00 
 263   17:10   0.09   79.6    33    4.9   162    11.8   873.9    0.00 
 263   17:20   0.06   78.6    34    3.8   182    11.0   874.0    0.00 
 263   17:30   0.02   76.6    35    4.2   181     8.8   874.0    0.00 
 263   17:40   0.01   75.2    39    2.6   169     5.6   874.0    0.00 
 263   17:50   0.00   74.4    40    3.2   185     6.4   874.0    0.00 
 263   18:00   0.00   74.1    41    2.9   200     8.0   874.0    0.00 
 263   18:10   0.00   73.7    42    3.2   212     6.0   874.0    0.00 
 263   18:20   0.00   73.5    42    3.7   216     7.6   874.1    0.00 
 263   18:30   0.00   73.1    46    3.9   214     7.5   874.0    0.00 
 263   18:40   0.00   72.5    48    3.7   214     6.7   874.0    0.00 
 263   18:50   0.00   72.1    49    4.3   216     9.3   874.0    0.00 
 263   19:00   0.00   71.9    50    4.1   209     7.5   874.1    0.00 
 263   19:10   0.00   71.4    51    3.0   233     5.4   874.2    0.00 
 263   19:20   0.00   70.4    53    2.5   221     4.8   874.2    0.00 
 263   19:30   0.00   69.7    54    1.3   210     2.9   874.2    0.00 
 263   19:40   0.00   68.5    56    1.6   205     3.1   874.3    0.00 
 263   19:50   0.00   67.7    56    0.2   164     1.8   874.2    0.00 
 263   20:00   0.00   65.7    60    0.0   316     0.1   874.1    0.00 
 263   20:10   0.00   65.5    61    2.7   216     4.9   874.1    0.00 
 263   20:20   0.00   67.7    57    3.6   209     5.5   874.1    0.00 
 263   20:30   0.00   69.2    54    3.0   205     5.0   874.0    0.00 
 263   20:40   0.00   68.0    56    1.6   179     4.5   874.1    0.00 
 263   20:50   0.00   66.4    59    2.5   208     4.7   874.0    0.00 
 263   21:00   0.00   67.0    59    2.8   163     4.4   874.0    0.00 
 263   21:10   0.00   67.4    59    2.3   149     4.2   874.0    0.00 
 263   21:20   0.00   66.5    61    2.1   141     3.7   874.2    0.00 
 263   21:30   0.00   65.8    62    1.7   203     5.3   874.2    0.00 
 263   21:40   0.00   67.0    59    2.4   230     5.9   874.3    0.00 
 263   21:50   0.00   67.2    58    2.9   237     5.1   874.3    0.00 
 263   22:00   0.00   67.6    57    3.9   215     7.0   874.4    0.00 
 263   22:10   0.00   67.9    56    2.9   223     5.1   874.4    0.00 
 263   22:20   0.00   67.4    58    2.3   233     3.6   874.4    0.00 
 263   22:30   0.00   66.6    59    2.1   242     3.9   874.5    0.00 
 263   22:40   0.00   65.8    60    2.0   238     5.3   874.5    0.00 
 263   22:50   0.00   67.0    58    4.2   239     7.2   874.4    0.00 
 263   23:00   0.00   67.5    56    4.2   228     7.1   874.4    0.00 
 263   23:10   0.00   67.7    55    4.7   222     7.1   874.4    0.00 
 263   23:20   0.00   67.4    56    3.7   225     7.2   874.4    0.00 
 263   23:30   0.00   67.0    57    2.6   223     6.4   874.4    0.00 
 263   23:40   0.00   66.2    59    2.2   235     5.0   874.5    0.00 
 263   23:50   0.00   65.1    61    2.6   237     4.7   874.4    0.00 
 264    0:00   0.00   65.1    60    3.0   226     4.5   874.4    0.00 

Return to Burns Pinion Ridge Reserve graphs page.


Western Regional Climate Center,wrcc@dri.edu